sensor_id;sensor_type;location;lat;lon;timestamp;P1;durP1;ratioP1;P2;durP2;ratioP2
12784;SDS011;6456;42.680;23.260;2023-05-31T00:00:01;3.63;;;3.00;;
12784;SDS011;6456;42.680;23.260;2023-05-31T00:02:29;3.40;;;3.10;;
12784;SDS011;6456;42.680;23.260;2023-05-31T00:04:57;3.57;;;3.23;;
12784;SDS011;6456;42.680;23.260;2023-05-31T00:07:23;3.73;;;3.40;;
12784;SDS011;6456;42.680;23.260;2023-05-31T00:09:50;4.70;;;3.63;;
12784;SDS011;6456;42.680;23.260;2023-05-31T00:12:19;3.73;;;3.43;;
12784;SDS011;6456;42.680;23.260;2023-05-31T00:14:46;4.07;;;3.77;;
12784;SDS011;6456;42.680;23.260;2023-05-31T00:17:13;4.20;;;3.80;;
12784;SDS011;6456;42.680;23.260;2023-05-31T00:19:40;3.40;;;3.10;;
12784;SDS011;6456;42.680;23.260;2023-05-31T00:22:07;3.80;;;3.40;;
12784;SDS011;6456;42.680;23.260;2023-05-31T00:24:34;4.13;;;3.73;;
12784;SDS011;6456;42.680;23.260;2023-05-31T00:27:01;4.00;;;3.70;;
12784;SDS011;6456;42.680;23.260;2023-05-31T00:29:30;3.93;;;3.57;;
12784;SDS011;6456;42.680;23.260;2023-05-31T00:31:57;3.83;;;3.40;;
12784;SDS011;6456;42.680;23.260;2023-05-31T00:34:23;4.60;;;4.03;;
12784;SDS011;6456;42.680;23.260;2023-05-31T00:36:50;4.60;;;3.63;;
12784;SDS011;6456;42.680;23.260;2023-05-31T00:39:17;4.60;;;3.67;;
12784;SDS011;6456;42.680;23.260;2023-05-31T00:41:44;4.27;;;3.87;;
12784;SDS011;6456;42.680;23.260;2023-05-31T00:44:11;4.20;;;3.80;;
12784;SDS011;6456;42.680;23.260;2023-05-31T00:46:39;5.53;;;4.27;;
12784;SDS011;6456;42.680;23.260;2023-05-31T00:49:07;4.20;;;3.80;;
12784;SDS011;6456;42.680;23.260;2023-05-31T00:51:37;4.53;;;4.07;;
12784;SDS011;6456;42.680;23.260;2023-05-31T00:54:04;4.63;;;3.90;;
12784;SDS011;6456;42.680;23.260;2023-05-31T00:56:32;3.90;;;3.60;;
12784;SDS011;6456;42.680;23.260;2023-05-31T00:58:59;4.23;;;3.87;;
12784;SDS011;6456;42.680;23.260;2023-05-31T01:01:26;4.13;;;3.83;;
12784;SDS011;6456;42.680;23.260;2023-05-31T01:04:00;3.83;;;3.43;;
12784;SDS011;6456;42.680;23.260;2023-05-31T01:06:27;5.27;;;3.73;;
12784;SDS011;6456;42.680;23.260;2023-05-31T01:08:57;5.80;;;4.17;;
12784;SDS011;6456;42.680;23.260;2023-05-31T01:11:28;4.37;;;3.97;;
12784;SDS011;6456;42.680;23.260;2023-05-31T01:14:04;5.83;;;3.70;;
12784;SDS011;6456;42.680;23.260;2023-05-31T01:16:47;4.33;;;4.00;;
12784;SDS011;6456;42.680;23.260;2023-05-31T01:19:20;5.60;;;4.27;;
12784;SDS011;6456;42.680;23.260;2023-05-31T01:22:07;4.20;;;3.70;;
12784;SDS011;6456;42.680;23.260;2023-05-31T01:24:43;4.17;;;3.60;;
12784;SDS011;6456;42.680;23.260;2023-05-31T01:27:20;4.30;;;3.90;;
12784;SDS011;6456;42.680;23.260;2023-05-31T01:29:48;4.17;;;3.87;;
12784;SDS011;6456;42.680;23.260;2023-05-31T01:32:16;4.47;;;4.07;;
12784;SDS011;6456;42.680;23.260;2023-05-31T01:34:46;3.63;;;3.33;;
12784;SDS011;6456;42.680;23.260;2023-05-31T01:37:15;4.73;;;3.77;;
12784;SDS011;6456;42.680;23.260;2023-05-31T01:39:42;3.97;;;3.57;;
12784;SDS011;6456;42.680;23.260;2023-05-31T01:42:09;3.93;;;3.40;;
12784;SDS011;6456;42.680;23.260;2023-05-31T01:44:39;4.63;;;3.67;;
12784;SDS011;6456;42.680;23.260;2023-05-31T01:47:07;4.00;;;3.50;;
12784;SDS011;6456;42.680;23.260;2023-05-31T01:49:35;3.93;;;3.60;;
12784;SDS011;6456;42.680;23.260;2023-05-31T01:52:04;4.47;;;3.93;;
12784;SDS011;6456;42.680;23.260;2023-05-31T01:54:33;4.73;;;3.70;;
12784;SDS011;6456;42.680;23.260;2023-05-31T01:57:00;6.50;;;4.07;;
12784;SDS011;6456;42.680;23.260;2023-05-31T01:59:31;4.53;;;3.87;;
12784;SDS011;6456;42.680;23.260;2023-05-31T02:02:02;4.13;;;3.73;;
12784;SDS011;6456;42.680;23.260;2023-05-31T02:04:30;5.40;;;3.47;;
12784;SDS011;6456;42.680;23.260;2023-05-31T02:06:56;5.20;;;3.97;;
12784;SDS011;6456;42.680;23.260;2023-05-31T02:09:25;4.20;;;3.67;;
12784;SDS011;6456;42.680;23.260;2023-05-31T02:11:53;4.23;;;3.73;;
12784;SDS011;6456;42.680;23.260;2023-05-31T02:14:21;5.60;;;3.63;;
12784;SDS011;6456;42.680;23.260;2023-05-31T02:16:48;6.17;;;4.40;;
12784;SDS011;6456;42.680;23.260;2023-05-31T02:19:16;7.40;;;4.20;;
12784;SDS011;6456;42.680;23.260;2023-05-31T02:21:44;4.67;;;4.20;;
12784;SDS011;6456;42.680;23.260;2023-05-31T02:24:11;4.60;;;4.20;;
12784;SDS011;6456;42.680;23.260;2023-05-31T02:26:38;5.07;;;4.13;;
12784;SDS011;6456;42.680;23.260;2023-05-31T02:29:04;5.10;;;4.60;;
12784;SDS011;6456;42.680;23.260;2023-05-31T02:31:31;5.57;;;4.80;;
12784;SDS011;6456;42.680;23.260;2023-05-31T02:33:58;12.23;;;5.07;;
12784;SDS011;6456;42.680;23.260;2023-05-31T02:36:26;7.30;;;4.63;;
12784;SDS011;6456;42.680;23.260;2023-05-31T02:38:55;5.90;;;4.80;;
12784;SDS011;6456;42.680;23.260;2023-05-31T02:41:22;6.03;;;5.23;;
12784;SDS011;6456;42.680;23.260;2023-05-31T02:43:49;5.63;;;4.77;;
12784;SDS011;6456;42.680;23.260;2023-05-31T02:46:16;5.80;;;4.93;;
12784;SDS011;6456;42.680;23.260;2023-05-31T02:48:42;5.40;;;4.83;;
12784;SDS011;6456;42.680;23.260;2023-05-31T02:51:09;5.20;;;4.70;;
12784;SDS011;6456;42.680;23.260;2023-05-31T02:53:37;6.63;;;5.23;;
12784;SDS011;6456;42.680;23.260;2023-05-31T02:56:04;5.80;;;5.27;;
12784;SDS011;6456;42.680;23.260;2023-05-31T02:58:33;5.93;;;5.27;;
12784;SDS011;6456;42.680;23.260;2023-05-31T03:01:00;5.83;;;5.33;;
12784;SDS011;6456;42.680;23.260;2023-05-31T03:03:27;7.73;;;5.43;;
12784;SDS011;6456;42.680;23.260;2023-05-31T03:05:54;5.77;;;5.27;;
12784;SDS011;6456;42.680;23.260;2023-05-31T03:08:21;7.27;;;5.63;;
12784;SDS011;6456;42.680;23.260;2023-05-31T03:10:49;5.83;;;5.33;;
12784;SDS011;6456;42.680;23.260;2023-05-31T03:13:16;6.10;;;5.17;;
12784;SDS011;6456;42.680;23.260;2023-05-31T03:15:42;6.97;;;5.70;;
12784;SDS011;6456;42.680;23.260;2023-05-31T03:18:09;6.00;;;5.40;;
12784;SDS011;6456;42.680;23.260;2023-05-31T03:20:37;6.20;;;5.60;;
12784;SDS011;6456;42.680;23.260;2023-05-31T03:23:04;8.47;;;5.50;;
12784;SDS011;6456;42.680;23.260;2023-05-31T03:25:31;6.50;;;5.80;;
12784;SDS011;6456;42.680;23.260;2023-05-31T03:28:00;6.43;;;5.67;;
12784;SDS011;6456;42.680;23.260;2023-05-31T03:30:27;6.67;;;5.53;;
12784;SDS011;6456;42.680;23.260;2023-05-31T03:32:54;6.07;;;5.57;;
12784;SDS011;6456;42.680;23.260;2023-05-31T03:35:21;6.70;;;5.40;;
12784;SDS011;6456;42.680;23.260;2023-05-31T03:37:48;11.10;;;5.83;;
12784;SDS011;6456;42.680;23.260;2023-05-31T03:40:15;6.93;;;5.30;;
12784;SDS011;6456;42.680;23.260;2023-05-31T03:42:42;5.70;;;5.20;;
12784;SDS011;6456;42.680;23.260;2023-05-31T03:45:12;5.70;;;5.20;;
12784;SDS011;6456;42.680;23.260;2023-05-31T03:47:39;12.00;;;5.60;;
12784;SDS011;6456;42.680;23.260;2023-05-31T03:50:07;6.77;;;5.97;;
12784;SDS011;6456;42.680;23.260;2023-05-31T03:52:35;8.87;;;5.80;;
12784;SDS011;6456;42.680;23.260;2023-05-31T03:55:03;15.27;;;6.43;;
12784;SDS011;6456;42.680;23.260;2023-05-31T03:57:30;10.90;;;6.30;;
12784;SDS011;6456;42.680;23.260;2023-05-31T03:59:57;8.40;;;5.83;;
12784;SDS011;6456;42.680;23.260;2023-05-31T04:02:26;6.60;;;5.90;;
12784;SDS011;6456;42.680;23.260;2023-05-31T04:04:53;11.10;;;6.27;;
12784;SDS011;6456;42.680;23.260;2023-05-31T04:07:20;13.83;;;6.23;;
12784;SDS011;6456;42.680;23.260;2023-05-31T04:09:47;11.67;;;6.30;;
12784;SDS011;6456;42.680;23.260;2023-05-31T04:12:14;14.97;;;6.30;;
12784;SDS011;6456;42.680;23.260;2023-05-31T04:14:40;10.23;;;5.97;;
12784;SDS011;6456;42.680;23.260;2023-05-31T04:17:07;11.70;;;6.43;;
12784;SDS011;6456;42.680;23.260;2023-05-31T04:19:36;10.90;;;6.33;;
12784;SDS011;6456;42.680;23.260;2023-05-31T04:22:03;15.53;;;6.60;;
12784;SDS011;6456;42.680;23.260;2023-05-31T04:24:31;14.73;;;7.07;;
12784;SDS011;6456;42.680;23.260;2023-05-31T04:26:58;7.53;;;6.43;;
12784;SDS011;6456;42.680;23.260;2023-05-31T04:29:28;12.77;;;6.37;;
12784;SDS011;6456;42.680;23.260;2023-05-31T04:31:55;13.80;;;6.50;;
12784;SDS011;6456;42.680;23.260;2023-05-31T04:34:22;7.90;;;6.27;;
12784;SDS011;6456;42.680;23.260;2023-05-31T04:36:50;12.00;;;6.87;;
12784;SDS011;6456;42.680;23.260;2023-05-31T04:39:17;12.53;;;7.03;;
12784;SDS011;6456;42.680;23.260;2023-05-31T04:41:47;11.13;;;8.30;;
12784;SDS011;6456;42.680;23.260;2023-05-31T04:44:14;12.17;;;7.93;;
12784;SDS011;6456;42.680;23.260;2023-05-31T04:46:41;8.07;;;7.27;;
12784;SDS011;6456;42.680;23.260;2023-05-31T04:49:07;12.83;;;8.10;;
12784;SDS011;6456;42.680;23.260;2023-05-31T04:51:34;19.93;;;7.97;;
12784;SDS011;6456;42.680;23.260;2023-05-31T04:54:03;12.63;;;8.13;;
12784;SDS011;6456;42.680;23.260;2023-05-31T04:56:31;12.77;;;9.10;;
12784;SDS011;6456;42.680;23.260;2023-05-31T04:58:57;16.93;;;8.67;;
12784;SDS011;6456;42.680;23.260;2023-05-31T05:01:24;11.33;;;7.60;;
12784;SDS011;6456;42.680;23.260;2023-05-31T05:03:51;8.63;;;7.17;;
12784;SDS011;6456;42.680;23.260;2023-05-31T05:06:18;14.50;;;8.50;;
12784;SDS011;6456;42.680;23.260;2023-05-31T05:08:45;15.07;;;8.07;;
12784;SDS011;6456;42.680;23.260;2023-05-31T05:11:14;15.23;;;8.63;;
12784;SDS011;6456;42.680;23.260;2023-05-31T05:13:41;10.67;;;8.13;;
12784;SDS011;6456;42.680;23.260;2023-05-31T05:16:09;11.97;;;7.77;;
12784;SDS011;6456;42.680;23.260;2023-05-31T05:18:36;8.93;;;7.77;;
12784;SDS011;6456;42.680;23.260;2023-05-31T05:21:03;9.13;;;8.23;;
12784;SDS011;6456;42.680;23.260;2023-05-31T05:23:30;12.53;;;7.93;;
12784;SDS011;6456;42.680;23.260;2023-05-31T05:25:58;9.57;;;8.13;;
12784;SDS011;6456;42.680;23.260;2023-05-31T05:28:26;22.90;;;8.53;;
12784;SDS011;6456;42.680;23.260;2023-05-31T05:30:53;12.00;;;8.07;;
12784;SDS011;6456;42.680;23.260;2023-05-31T05:33:20;10.33;;;8.23;;
12784;SDS011;6456;42.680;23.260;2023-05-31T05:35:53;12.53;;;8.10;;
12784;SDS011;6456;42.680;23.260;2023-05-31T05:38:20;14.17;;;8.43;;
12784;SDS011;6456;42.680;23.260;2023-05-31T05:40:47;15.80;;;7.57;;
12784;SDS011;6456;42.680;23.260;2023-05-31T05:43:13;11.33;;;7.40;;
12784;SDS011;6456;42.680;23.260;2023-05-31T05:45:42;18.67;;;8.80;;
12784;SDS011;6456;42.680;23.260;2023-05-31T05:48:08;20.73;;;8.73;;
12784;SDS011;6456;42.680;23.260;2023-05-31T05:50:35;15.47;;;8.03;;
12784;SDS011;6456;42.680;23.260;2023-05-31T05:53:02;10.70;;;6.87;;
12784;SDS011;6456;42.680;23.260;2023-05-31T05:55:29;7.60;;;6.80;;
12784;SDS011;6456;42.680;23.260;2023-05-31T05:57:56;11.27;;;6.70;;
12784;SDS011;6456;42.680;23.260;2023-05-31T06:00:23;18.30;;;8.27;;
12784;SDS011;6456;42.680;23.260;2023-05-31T06:02:51;12.83;;;7.00;;
12784;SDS011;6456;42.680;23.260;2023-05-31T06:05:18;12.47;;;7.20;;
12784;SDS011;6456;42.680;23.260;2023-05-31T06:07:50;15.30;;;7.90;;
12784;SDS011;6456;42.680;23.260;2023-05-31T06:10:17;17.57;;;7.10;;
12784;SDS011;6456;42.680;23.260;2023-05-31T06:12:44;13.47;;;7.77;;
12784;SDS011;6456;42.680;23.260;2023-05-31T06:15:11;26.83;;;10.33;;
12784;SDS011;6456;42.680;23.260;2023-05-31T06:17:37;15.77;;;7.83;;
12784;SDS011;6456;42.680;23.260;2023-05-31T06:20:06;21.13;;;8.57;;
12784;SDS011;6456;42.680;23.260;2023-05-31T06:22:35;19.53;;;8.37;;
12784;SDS011;6456;42.680;23.260;2023-05-31T06:25:02;12.15;;;7.93;;
12784;SDS011;6456;42.680;23.260;2023-05-31T06:27:30;15.57;;;8.60;;
12784;SDS011;6456;42.680;23.260;2023-05-31T06:29:57;14.07;;;8.60;;
12784;SDS011;6456;42.680;23.260;2023-05-31T06:32:24;13.03;;;8.53;;
12784;SDS011;6456;42.680;23.260;2023-05-31T06:34:52;12.70;;;8.37;;
12784;SDS011;6456;42.680;23.260;2023-05-31T06:37:20;14.50;;;8.43;;
12784;SDS011;6456;42.680;23.260;2023-05-31T06:39:48;12.00;;;8.87;;
12784;SDS011;6456;42.680;23.260;2023-05-31T06:42:15;16.97;;;8.77;;
12784;SDS011;6456;42.680;23.260;2023-05-31T06:44:42;16.17;;;9.43;;
12784;SDS011;6456;42.680;23.260;2023-05-31T06:47:09;13.30;;;8.73;;
12784;SDS011;6456;42.680;23.260;2023-05-31T06:49:36;10.43;;;8.40;;
12784;SDS011;6456;42.680;23.260;2023-05-31T06:52:02;15.30;;;8.37;;
12784;SDS011;6456;42.680;23.260;2023-05-31T06:54:33;11.80;;;9.43;;
12784;SDS011;6456;42.680;23.260;2023-05-31T06:57:01;11.82;;;8.88;;
12784;SDS011;6456;42.680;23.260;2023-05-31T06:59:28;15.00;;;8.93;;
12784;SDS011;6456;42.680;23.260;2023-05-31T07:01:55;17.42;;;8.70;;
12784;SDS011;6456;42.680;23.260;2023-05-31T07:04:21;27.55;;;10.02;;
12784;SDS011;6456;42.680;23.260;2023-05-31T07:06:48;23.13;;;8.63;;
12784;SDS011;6456;42.680;23.260;2023-05-31T07:09:16;13.63;;;7.68;;
12784;SDS011;6456;42.680;23.260;2023-05-31T07:11:46;12.25;;;8.27;;
12784;SDS011;6456;42.680;23.260;2023-05-31T07:14:13;14.18;;;8.68;;
12784;SDS011;6456;42.680;23.260;2023-05-31T07:16:40;13.00;;;7.30;;
12784;SDS011;6456;42.680;23.260;2023-05-31T07:19:07;11.88;;;7.90;;
12784;SDS011;6456;42.680;23.260;2023-05-31T07:21:33;17.35;;;8.00;;
12784;SDS011;6456;42.680;23.260;2023-05-31T07:24:00;12.45;;;6.82;;
12784;SDS011;6456;42.680;23.260;2023-05-31T07:26:27;11.07;;;7.18;;
12784;SDS011;6456;42.680;23.260;2023-05-31T07:28:55;15.43;;;7.43;;
12784;SDS011;6456;42.680;23.260;2023-05-31T07:31:22;8.93;;;7.00;;
12784;SDS011;6456;42.680;23.260;2023-05-31T07:33:49;22.95;;;8.25;;
12784;SDS011;6456;42.680;23.260;2023-05-31T07:36:16;15.85;;;7.80;;
12784;SDS011;6456;42.680;23.260;2023-05-31T07:38:43;9.23;;;6.72;;
12784;SDS011;6456;42.680;23.260;2023-05-31T07:41:10;9.65;;;6.05;;
12784;SDS011;6456;42.680;23.260;2023-05-31T07:43:37;7.13;;;5.97;;
12784;SDS011;6456;42.680;23.260;2023-05-31T07:46:07;7.47;;;5.60;;
12784;SDS011;6456;42.680;23.260;2023-05-31T07:48:34;8.02;;;5.63;;
12784;SDS011;6456;42.680;23.260;2023-05-31T07:51:01;8.88;;;5.53;;
12784;SDS011;6456;42.680;23.260;2023-05-31T07:53:28;9.00;;;5.35;;
12784;SDS011;6456;42.680;23.260;2023-05-31T07:55:54;14.07;;;5.90;;
12784;SDS011;6456;42.680;23.260;2023-05-31T07:58:21;9.98;;;6.13;;
12784;SDS011;6456;42.680;23.260;2023-05-31T08:00:49;11.68;;;6.07;;
12784;SDS011;6456;42.680;23.260;2023-05-31T08:03:19;9.07;;;5.65;;
12784;SDS011;6456;42.680;23.260;2023-05-31T08:05:46;13.43;;;6.63;;
12784;SDS011;6456;42.680;23.260;2023-05-31T08:08:14;6.28;;;5.68;;
12784;SDS011;6456;42.680;23.260;2023-05-31T08:10:42;9.45;;;5.40;;
12784;SDS011;6456;42.680;23.260;2023-05-31T08:13:09;12.13;;;5.00;;
12784;SDS011;6456;42.680;23.260;2023-05-31T08:15:36;11.90;;;5.90;;
12784;SDS011;6456;42.680;23.260;2023-05-31T08:18:03;11.02;;;6.20;;
12784;SDS011;6456;42.680;23.260;2023-05-31T08:20:32;10.15;;;6.38;;
12784;SDS011;6456;42.680;23.260;2023-05-31T08:23:00;11.45;;;4.70;;
12784;SDS011;6456;42.680;23.260;2023-05-31T08:25:27;32.22;;;7.47;;
12784;SDS011;6456;42.680;23.260;2023-05-31T08:27:54;22.90;;;6.38;;
12784;SDS011;6456;42.680;23.260;2023-05-31T08:30:21;7.88;;;5.57;;
12784;SDS011;6456;42.680;23.260;2023-05-31T08:32:47;10.25;;;5.25;;
12784;SDS011;6456;42.680;23.260;2023-05-31T08:35:14;10.40;;;5.60;;
12784;SDS011;6456;42.680;23.260;2023-05-31T08:37:42;6.75;;;5.28;;
12784;SDS011;6456;42.680;23.260;2023-05-31T08:40:10;20.05;;;6.03;;
12784;SDS011;6456;42.680;23.260;2023-05-31T08:42:38;8.27;;;5.57;;
12784;SDS011;6456;42.680;23.260;2023-05-31T08:45:07;8.18;;;5.60;;
12784;SDS011;6456;42.680;23.260;2023-05-31T08:47:36;17.15;;;6.68;;
12784;SDS011;6456;42.680;23.260;2023-05-31T08:50:06;10.60;;;7.15;;
12784;SDS011;6456;42.680;23.260;2023-05-31T08:52:35;14.63;;;6.80;;
12784;SDS011;6456;42.680;23.260;2023-05-31T08:55:04;6.53;;;5.63;;
12784;SDS011;6456;42.680;23.260;2023-05-31T08:57:31;9.15;;;5.75;;
12784;SDS011;6456;42.680;23.260;2023-05-31T09:00:00;17.05;;;7.28;;
12784;SDS011;6456;42.680;23.260;2023-05-31T09:02:33;8.25;;;6.68;;
12784;SDS011;6456;42.680;23.260;2023-05-31T09:05:00;17.48;;;7.55;;
12784;SDS011;6456;42.680;23.260;2023-05-31T09:07:29;10.88;;;6.22;;
12784;SDS011;6456;42.680;23.260;2023-05-31T09:09:56;7.95;;;5.40;;
12784;SDS011;6456;42.680;23.260;2023-05-31T09:12:24;13.10;;;5.97;;
12784;SDS011;6456;42.680;23.260;2023-05-31T09:14:51;6.97;;;5.32;;
12784;SDS011;6456;42.680;23.260;2023-05-31T09:17:18;12.77;;;6.00;;
12784;SDS011;6456;42.680;23.260;2023-05-31T09:19:49;5.95;;;5.30;;
12784;SDS011;6456;42.680;23.260;2023-05-31T09:22:17;6.15;;;5.55;;
12784;SDS011;6456;42.680;23.260;2023-05-31T09:24:48;9.70;;;5.30;;
12784;SDS011;6456;42.680;23.260;2023-05-31T09:27:16;14.02;;;5.03;;
12784;SDS011;6456;42.680;23.260;2023-05-31T09:29:45;6.45;;;5.03;;
12784;SDS011;6456;42.680;23.260;2023-05-31T09:32:17;5.22;;;4.57;;
12784;SDS011;6456;42.680;23.260;2023-05-31T09:34:44;10.43;;;5.25;;
12784;SDS011;6456;42.680;23.260;2023-05-31T09:37:14;17.02;;;5.80;;
12784;SDS011;6456;42.680;23.260;2023-05-31T09:39:53;10.38;;;5.07;;
12784;SDS011;6456;42.680;23.260;2023-05-31T09:42:21;13.68;;;5.53;;
12784;SDS011;6456;42.680;23.260;2023-05-31T09:44:49;6.15;;;4.80;;
12784;SDS011;6456;42.680;23.260;2023-05-31T09:47:17;8.40;;;4.78;;
12784;SDS011;6456;42.680;23.260;2023-05-31T09:49:49;13.60;;;4.88;;
12784;SDS011;6456;42.680;23.260;2023-05-31T09:52:16;5.00;;;4.53;;
12784;SDS011;6456;42.680;23.260;2023-05-31T09:54:43;9.85;;;4.85;;
12784;SDS011;6456;42.680;23.260;2023-05-31T09:57:22;8.95;;;4.97;;
12784;SDS011;6456;42.680;23.260;2023-05-31T09:59:57;8.45;;;5.50;;
12784;SDS011;6456;42.680;23.260;2023-05-31T10:02:25;7.03;;;4.75;;
12784;SDS011;6456;42.680;23.260;2023-05-31T10:04:53;6.90;;;4.72;;
12784;SDS011;6456;42.680;23.260;2023-05-31T10:07:21;12.02;;;4.15;;
12784;SDS011;6456;42.680;23.260;2023-05-31T10:09:49;8.43;;;3.35;;
12784;SDS011;6456;42.680;23.260;2023-05-31T10:12:16;8.90;;;4.03;;
12784;SDS011;6456;42.680;23.260;2023-05-31T10:14:46;12.68;;;3.88;;
12784;SDS011;6456;42.680;23.260;2023-05-31T10:17:17;16.45;;;5.60;;
12784;SDS011;6456;42.680;23.260;2023-05-31T10:19:50;10.55;;;5.25;;
12784;SDS011;6456;42.680;23.260;2023-05-31T10:22:23;10.98;;;4.70;;
12784;SDS011;6456;42.680;23.260;2023-05-31T10:24:57;7.78;;;4.38;;
12784;SDS011;6456;42.680;23.260;2023-05-31T10:27:29;11.40;;;4.68;;
12784;SDS011;6456;42.680;23.260;2023-05-31T10:30:04;7.82;;;4.05;;
12784;SDS011;6456;42.680;23.260;2023-05-31T10:32:34;9.15;;;5.28;;
12784;SDS011;6456;42.680;23.260;2023-05-31T10:35:08;8.15;;;4.82;;
12784;SDS011;6456;42.680;23.260;2023-05-31T10:37:36;6.13;;;4.28;;
12784;SDS011;6456;42.680;23.260;2023-05-31T10:40:06;8.48;;;4.97;;
12784;SDS011;6456;42.680;23.260;2023-05-31T10:42:38;5.88;;;4.15;;
12784;SDS011;6456;42.680;23.260;2023-05-31T10:45:19;6.22;;;4.60;;
12784;SDS011;6456;42.680;23.260;2023-05-31T10:47:51;12.48;;;5.57;;
12784;SDS011;6456;42.680;23.260;2023-05-31T10:50:22;5.10;;;4.38;;
12784;SDS011;6456;42.680;23.260;2023-05-31T10:52:49;4.13;;;3.58;;
12784;SDS011;6456;42.680;23.260;2023-05-31T10:55:17;8.70;;;3.50;;
12784;SDS011;6456;42.680;23.260;2023-05-31T10:57:49;4.63;;;3.03;;
12784;SDS011;6456;42.680;23.260;2023-05-31T11:00:18;3.83;;;2.88;;
12784;SDS011;6456;42.680;23.260;2023-05-31T11:02:46;14.00;;;3.90;;
12784;SDS011;6456;42.680;23.260;2023-05-31T11:05:19;8.02;;;3.83;;
12784;SDS011;6456;42.680;23.260;2023-05-31T11:07:47;4.60;;;3.15;;
12784;SDS011;6456;42.680;23.260;2023-05-31T11:10:25;6.95;;;3.50;;
12784;SDS011;6456;42.680;23.260;2023-05-31T11:12:55;5.43;;;3.40;;
12784;SDS011;6456;42.680;23.260;2023-05-31T11:15:25;4.45;;;3.60;;
12784;SDS011;6456;42.680;23.260;2023-05-31T11:18:06;10.27;;;4.40;;
12784;SDS011;6456;42.680;23.260;2023-05-31T11:20:36;6.32;;;3.70;;
12784;SDS011;6456;42.680;23.260;2023-05-31T11:26:09;4.22;;;3.40;;
12784;SDS011;6456;42.680;23.260;2023-05-31T11:28:53;6.07;;;3.83;;
12784;SDS011;6456;42.680;23.260;2023-05-31T11:34:24;5.45;;;3.55;;
12784;SDS011;6456;42.680;23.260;2023-05-31T11:36:56;3.67;;;3.22;;
12784;SDS011;6456;42.680;23.260;2023-05-31T11:39:24;4.03;;;3.60;;
12784;SDS011;6456;42.680;23.260;2023-05-31T11:41:51;5.10;;;4.32;;
12784;SDS011;6456;42.680;23.260;2023-05-31T11:44:20;4.55;;;4.15;;
12784;SDS011;6456;42.680;23.260;2023-05-31T11:46:54;5.63;;;4.40;;
12784;SDS011;6456;42.680;23.260;2023-05-31T11:49:25;7.35;;;3.67;;
12784;SDS011;6456;42.680;23.260;2023-05-31T11:51:54;6.18;;;3.85;;
12784;SDS011;6456;42.680;23.260;2023-05-31T11:54:25;10.85;;;5.60;;
12784;SDS011;6456;42.680;23.260;2023-05-31T11:56:55;11.77;;;6.00;;
12784;SDS011;6456;42.680;23.260;2023-05-31T11:59:24;7.03;;;3.65;;
12784;SDS011;6456;42.680;23.260;2023-05-31T12:01:56;7.25;;;3.83;;
12784;SDS011;6456;42.680;23.260;2023-05-31T12:04:27;12.15;;;4.70;;
12784;SDS011;6456;42.680;23.260;2023-05-31T12:06:59;12.18;;;4.15;;
12784;SDS011;6456;42.680;23.260;2023-05-31T12:09:26;6.93;;;3.92;;
12784;SDS011;6456;42.680;23.260;2023-05-31T12:11:54;7.57;;;3.75;;
12784;SDS011;6456;42.680;23.260;2023-05-31T12:14:22;6.65;;;4.25;;
12784;SDS011;6456;42.680;23.260;2023-05-31T12:16:50;6.47;;;4.00;;
12784;SDS011;6456;42.680;23.260;2023-05-31T12:19:17;4.40;;;3.80;;
12784;SDS011;6456;42.680;23.260;2023-05-31T12:21:44;5.00;;;3.58;;
12784;SDS011;6456;42.680;23.260;2023-05-31T12:24:13;5.80;;;3.80;;
12784;SDS011;6456;42.680;23.260;2023-05-31T12:26:41;10.95;;;4.32;;
12784;SDS011;6456;42.680;23.260;2023-05-31T12:29:10;6.20;;;3.85;;
12784;SDS011;6456;42.680;23.260;2023-05-31T12:31:38;4.95;;;4.25;;
12784;SDS011;6456;42.680;23.260;2023-05-31T12:34:05;8.65;;;4.13;;
12784;SDS011;6456;42.680;23.260;2023-05-31T12:36:36;8.27;;;3.72;;
12784;SDS011;6456;42.680;23.260;2023-05-31T12:39:06;11.02;;;3.22;;
12784;SDS011;6456;42.680;23.260;2023-05-31T12:41:36;16.90;;;4.32;;
12784;SDS011;6456;42.680;23.260;2023-05-31T12:44:03;9.90;;;3.40;;
12784;SDS011;6456;42.680;23.260;2023-05-31T12:46:36;8.40;;;4.05;;
12784;SDS011;6456;42.680;23.260;2023-05-31T12:49:11;4.47;;;3.95;;
12784;SDS011;6456;42.680;23.260;2023-05-31T12:51:39;4.63;;;4.22;;
12784;SDS011;6456;42.680;23.260;2023-05-31T12:54:10;4.00;;;3.70;;
12784;SDS011;6456;42.680;23.260;2023-05-31T12:56:39;8.88;;;4.30;;
12784;SDS011;6456;42.680;23.260;2023-05-31T12:59:06;8.75;;;4.30;;
12784;SDS011;6456;42.680;23.260;2023-05-31T13:01:35;5.88;;;4.38;;
12784;SDS011;6456;42.680;23.260;2023-05-31T13:04:05;7.30;;;3.97;;
12784;SDS011;6456;42.680;23.260;2023-05-31T13:06:32;5.60;;;4.60;;
12784;SDS011;6456;42.680;23.260;2023-05-31T13:09:00;5.78;;;4.10;;
12784;SDS011;6456;42.680;23.260;2023-05-31T13:11:29;5.20;;;4.10;;
12784;SDS011;6456;42.680;23.260;2023-05-31T13:13:59;4.53;;;3.95;;
12784;SDS011;6456;42.680;23.260;2023-05-31T13:16:26;4.57;;;4.13;;
12784;SDS011;6456;42.680;23.260;2023-05-31T13:18:54;6.10;;;4.70;;
12784;SDS011;6456;42.680;23.260;2023-05-31T13:21:21;5.43;;;4.13;;
12784;SDS011;6456;42.680;23.260;2023-05-31T13:23:48;5.55;;;4.43;;
12784;SDS011;6456;42.680;23.260;2023-05-31T13:26:16;7.40;;;5.13;;
12784;SDS011;6456;42.680;23.260;2023-05-31T13:28:42;62.88;;;15.55;;
12784;SDS011;6456;42.680;23.260;2023-05-31T13:31:11;24.58;;;9.25;;
12784;SDS011;6456;42.680;23.260;2023-05-31T13:33:38;13.52;;;5.95;;
12784;SDS011;6456;42.680;23.260;2023-05-31T13:36:05;16.08;;;6.32;;
12784;SDS011;6456;42.680;23.260;2023-05-31T13:38:32;14.38;;;6.00;;
12784;SDS011;6456;42.680;23.260;2023-05-31T13:40:59;9.27;;;5.07;;
12784;SDS011;6456;42.680;23.260;2023-05-31T13:43:25;6.73;;;4.43;;
12784;SDS011;6456;42.680;23.260;2023-05-31T13:45:54;7.17;;;4.37;;
12784;SDS011;6456;42.680;23.260;2023-05-31T13:48:23;14.23;;;5.73;;
12784;SDS011;6456;42.680;23.260;2023-05-31T13:50:50;11.33;;;4.27;;
12784;SDS011;6456;42.680;23.260;2023-05-31T13:53:17;6.07;;;4.40;;
12784;SDS011;6456;42.680;23.260;2023-05-31T13:55:44;6.57;;;4.20;;
12784;SDS011;6456;42.680;23.260;2023-05-31T13:58:12;6.80;;;4.60;;
12784;SDS011;6456;42.680;23.260;2023-05-31T14:00:39;8.90;;;4.60;;
12784;SDS011;6456;42.680;23.260;2023-05-31T14:03:06;7.53;;;4.57;;
12784;SDS011;6456;42.680;23.260;2023-05-31T14:05:34;7.00;;;4.97;;
12784;SDS011;6456;42.680;23.260;2023-05-31T14:08:01;6.43;;;4.17;;
12784;SDS011;6456;42.680;23.260;2023-05-31T14:10:28;5.73;;;3.80;;
12784;SDS011;6456;42.680;23.260;2023-05-31T14:12:55;7.03;;;4.00;;
12784;SDS011;6456;42.680;23.260;2023-05-31T14:15:22;5.10;;;3.33;;
12784;SDS011;6456;42.680;23.260;2023-05-31T14:17:52;4.43;;;3.13;;
12784;SDS011;6456;42.680;23.260;2023-05-31T14:20:19;5.20;;;3.63;;
12784;SDS011;6456;42.680;23.260;2023-05-31T14:22:47;4.47;;;3.17;;
12784;SDS011;6456;42.680;23.260;2023-05-31T14:25:14;10.50;;;4.47;;
12784;SDS011;6456;42.680;23.260;2023-05-31T14:27:41;8.10;;;3.80;;
12784;SDS011;6456;42.680;23.260;2023-05-31T14:30:08;3.60;;;3.03;;
12784;SDS011;6456;42.680;23.260;2023-05-31T14:32:35;3.73;;;3.33;;
12784;SDS011;6456;42.680;23.260;2023-05-31T14:35:02;7.30;;;3.40;;
12784;SDS011;6456;42.680;23.260;2023-05-31T14:37:30;6.70;;;3.47;;
12784;SDS011;6456;42.680;23.260;2023-05-31T14:39:59;8.77;;;4.47;;
12784;SDS011;6456;42.680;23.260;2023-05-31T14:42:26;4.80;;;4.03;;
12784;SDS011;6456;42.680;23.260;2023-05-31T14:44:53;7.80;;;4.90;;
12784;SDS011;6456;42.680;23.260;2023-05-31T14:47:20;5.13;;;3.90;;
12784;SDS011;6456;42.680;23.260;2023-05-31T14:49:47;4.60;;;4.10;;
12784;SDS011;6456;42.680;23.260;2023-05-31T14:52:14;6.20;;;4.37;;
12784;SDS011;6456;42.680;23.260;2023-05-31T14:54:41;7.67;;;4.43;;